Tiger — 9HA2271 — position and weather

sailwx.info

Track history (hours):
 
Tides and Currents Weather Stations Pressure Air Temp Water Temp Dewpoint Dewpoint Depression Visibility Wind Speed Wind Dir Waves Ship Positions

Tiger

Last reported at 2016-Sep-13 22:15 UTC. Time now 2016-Sep-27 10:25 UTC.
Position N 08°52' W 079°31'.
Warning: this ship's position is 13 days out of date.

Length 231 m; draft 10 m.

Type: Cargo ship. MMSI: 248223000.

Date/timePositionNaut miles runAvg speedWind from/ knotsBaromVisibWave heightAir tempDewpointWater temp
2016-Sep-13 22:15N 08°52' W 079°31'9 5.1
2016-Sep-13 20:31N 08°60' W 079°35'2 1.1
2016-Sep-13 18:33N 09°01' W 079°37'4 4.1
2016-Sep-13 17:33N 09°04' W 079°40'7 6.4
2016-Sep-13 16:29N 09°07' W 079°46'13 2.7
2016-Sep-13 11:33N 09°17' W 079°55'6 2.9
2016-Sep-13 09:33N 09°23' W 079°55'5 2.3
2016-Sep-13 07:30N 09°27' W 079°56'0 0.0
2016-Sep-13 06:33N 09°27' W 079°56'0 0.0
2016-Sep-13 04:30N 09°27' W 079°56'0 0.0
2016-Sep-13 02:33N 09°27' W 079°56'3 0.9
2016-Sep-12 23:34N 09°25' W 079°54'3 1.6
2016-Sep-12 21:32N 09°22' W 079°53'0 0.0
2016-Sep-12 19:32N 09°22' W 079°53'0 0.0
2016-Sep-12 17:31N 09°22' W 079°53'6 1.9
2016-Sep-12 14:33N 09°28' W 079°53'1110.9
2016-Sep-12 13:33N 09°38' W 079°52'1212.3
2016-Sep-12 12:33N 09°50' W 079°47'1212.3
2016-Sep-12 11:32N 10°01' W 079°41'  
2016-Sep-09 01:33N 31°43' W 080°15'1817.8
2016-Sep-09 00:33N 31°53' W 080°33'1514.8
2016-Sep-08 23:33N 32°00' W 080°48'1212.5
2016-Sep-08 22:34N 32°06' W 081°01'4 4.3
2016-Sep-08 21:31N 32°05' W 081°06'0 0.0
2016-Sep-08 20:31N 32°05' W 081°06'0 0.0
2016-Sep-08 19:31N 32°05' W 081°06'0 0.0
2016-Sep-08 18:31N 32°05' W 081°06'0 0.0
2016-Sep-08 17:31N 32°05' W 081°06'0 0.0
2016-Sep-08 16:31N 32°05' W 081°06'0 0.0
2016-Sep-08 15:31N 32°05' W 081°06'0 0.0
2016-Sep-08 14:31N 32°05' W 081°06'0 0.0
2016-Sep-08 13:28N 32°05' W 081°06'0 0.0
2016-Sep-08 12:31N 32°05' W 081°06'0 0.0
2016-Sep-08 11:31N 32°05' W 081°06'0 0.0
2016-Sep-08 10:31N 32°05' W 081°06'0 0.0
2016-Sep-08 09:31N 32°05' W 081°06'0 0.0
2016-Sep-08 08:31N 32°05' W 081°06'0 0.0
2016-Sep-08 07:31N 32°05' W 081°06'0 0.0
2016-Sep-08 06:31N 32°05' W 081°06'0 0.0
2016-Sep-08 05:31N 32°05' W 081°06'0 0.0
2016-Sep-08 04:31N 32°05' W 081°06'0 0.0
2016-Sep-08 03:34N 32°05' W 081°06'0 0.0
2016-Sep-08 02:31N 32°05' W 081°06'0 0.0
2016-Sep-08 01:31N 32°05' W 081°06'0 0.0
2016-Sep-08 00:31N 32°05' W 081°06'0 0.0
2016-Sep-07 23:31N 32°05' W 081°06'0 0.0
2016-Sep-07 22:31N 32°05' W 081°06'0 0.0
2016-Sep-07 21:31N 32°05' W 081°06'0 0.0
2016-Sep-07 20:31N 32°05' W 081°06'0 0.0
2016-Sep-07 19:31N 32°05' W 081°06'0 0.0
2016-Sep-07 18:31N 32°05' W 081°06'0 0.0
2016-Sep-07 17:31N 32°05' W 081°06'0 0.0
2016-Sep-07 16:31N 32°05' W 081°06'0 0.0
2016-Sep-07 15:31N 32°05' W 081°06'0 0.0
2016-Sep-07 14:31N 32°05' W 081°06'0 0.0
2016-Sep-07 13:31N 32°05' W 081°06'0 0.0
2016-Sep-07 12:31N 32°05' W 081°06'0 0.0
2016-Sep-07 11:31N 32°05' W 081°06'0 0.0
2016-Sep-07 10:34N 32°05' W 081°06'0 0.0
2016-Sep-07 09:31N 32°05' W 081°06'0 0.0
2016-Sep-07 08:30N 32°05' W 081°06'0 0.0
2016-Sep-07 07:31N 32°05' W 081°06'0 0.0
2016-Sep-07 06:31N 32°05' W 081°06'0 0.0
2016-Sep-07 04:31N 32°05' W 081°06'0 0.0
2016-Sep-07 03:33N 32°05' W 081°06'0 0.0
2016-Sep-07 02:34N 32°05' W 081°06'0 0.0
2016-Sep-07 01:31N 32°05' W 081°06'0 0.0
2016-Sep-07 00:33N 32°05' W 081°06'0 0.0
2016-Sep-06 23:33N 32°05' W 081°06'0 0.0
2016-Sep-06 22:34N 32°05' W 081°06'1 1.4
2016-Sep-06 21:33N 32°06' W 081°07'6 5.8
2016-Sep-06 20:33N 32°06' W 081°00'1110.9
2016-Sep-06 19:33N 32°01' W 080°49'1110.8
2016-Sep-06 18:33N 31°58' W 080°37'6 6.3
2016-Sep-06 17:33N 31°58' W 080°29'17 6.9
2016-Sep-06 15:07N 32°02' W 080°10'4 7.2
2016-Sep-06 14:31N 32°04' W 080°05'356 9.6
2016-Sep-05 01:29N 36°49' W 075°48'1111.5
2016-Sep-05 00:32N 36°56' W 075°59'7216.4
2016-Sep-04 20:08N 38°07' W 076°14'3718.4
2016-Sep-04 18:07N 38°43' W 076°26'1018.5
2016-Sep-04 17:33N 38°54' W 076°24'1414.3
2016-Sep-04 16:33N 39°08' W 076°24'1110.5
2016-Sep-04 15:32N 39°15' W 076°34'1 0.6
2016-Sep-04 14:33N 39°15' W 076°35'0 0.0
2016-Sep-04 13:33N 39°15' W 076°35'0 0.0
2016-Sep-04 12:33N 39°15' W 076°35'0 0.0
2016-Sep-04 11:33N 39°15' W 076°35'0 0.0
2016-Sep-04 10:33N 39°15' W 076°35'0 0.0
2016-Sep-04 09:33N 39°15' W 076°35'0 0.0
2016-Sep-04 08:30N 39°15' W 076°35'0 0.0
2016-Sep-04 07:33N 39°15' W 076°35'0 0.0
2016-Sep-04 06:30N 39°15' W 076°35'2 1.0
2016-Sep-04 04:34N 39°15' W 076°32'0 0.0
2016-Sep-04 03:30N 39°15' W 076°32'0 0.0
2016-Sep-04 02:30N 39°15' W 076°32'0 0.0
2016-Sep-04 01:33N 39°15' W 076°32'0 0.0
2016-Sep-04 00:33N 39°15' W 076°32'0 0.0
2016-Sep-03 23:33N 39°15' W 076°32'0 0.0
2016-Sep-03 22:33N 39°15' W 076°32'  
Track history (hours):
 
Tides and Currents Weather Stations Pressure Air Temp Water Temp Dewpoint Dewpoint Depression Visibility Wind Speed Wind Dir Waves Ship Positions

Tiger

Last reported at 2016-Sep-13 22:15 UTC. Time now 2016-Sep-27 10:25 UTC.
Position N 08°52' W 079°31'.
Warning: this ship's position is 13 days out of date.

Length 231 m; draft 10 m.

Type: Cargo ship. MMSI: 248223000.

Date/timePositionNaut miles runAvg speedWind from/ knotsBaromVisibWave heightAir tempDewpointWater temp
2016-Sep-13 22:15N 08°52' W 079°31'9 5.1
2016-Sep-13 20:31N 08°60' W 079°35'2 1.1
2016-Sep-13 18:33N 09°01' W 079°37'4 4.1
2016-Sep-13 17:33N 09°04' W 079°40'7 6.4
2016-Sep-13 16:29N 09°07' W 079°46'13 2.7
2016-Sep-13 11:33N 09°17' W 079°55'6 2.9
2016-Sep-13 09:33N 09°23' W 079°55'5 2.3
2016-Sep-13 07:30N 09°27' W 079°56'0 0.0
2016-Sep-13 06:33N 09°27' W 079°56'0 0.0
2016-Sep-13 04:30N 09°27' W 079°56'0 0.0
2016-Sep-13 02:33N 09°27' W 079°56'3 0.9
2016-Sep-12 23:34N 09°25' W 079°54'3 1.6
2016-Sep-12 21:32N 09°22' W 079°53'0 0.0
2016-Sep-12 19:32N 09°22' W 079°53'0 0.0
2016-Sep-12 17:31N 09°22' W 079°53'6 1.9
2016-Sep-12 14:33N 09°28' W 079°53'1110.9
2016-Sep-12 13:33N 09°38' W 079°52'1212.3
2016-Sep-12 12:33N 09°50' W 079°47'1212.3
2016-Sep-12 11:32N 10°01' W 079°41'  
2016-Sep-09 01:33N 31°43' W 080°15'1817.8
2016-Sep-09 00:33N 31°53' W 080°33'1514.8
2016-Sep-08 23:33N 32°00' W 080°48'1212.5
2016-Sep-08 22:34N 32°06' W 081°01'4 4.3
2016-Sep-08 21:31N 32°05' W 081°06'0 0.0
2016-Sep-08 20:31N 32°05' W 081°06'0 0.0
2016-Sep-08 19:31N 32°05' W 081°06'0 0.0
2016-Sep-08 18:31N 32°05' W 081°06'0 0.0
2016-Sep-08 17:31N 32°05' W 081°06'0 0.0
2016-Sep-08 16:31N 32°05' W 081°06'0 0.0
2016-Sep-08 15:31N 32°05' W 081°06'0 0.0
2016-Sep-08 14:31N 32°05' W 081°06'0 0.0
2016-Sep-08 13:28N 32°05' W 081°06'0 0.0
2016-Sep-08 12:31N 32°05' W 081°06'0 0.0
2016-Sep-08 11:31N 32°05' W 081°06'0 0.0
2016-Sep-08 10:31N 32°05' W 081°06'0 0.0
2016-Sep-08 09:31N 32°05' W 081°06'0 0.0
2016-Sep-08 08:31N 32°05' W 081°06'0 0.0
2016-Sep-08 07:31N 32°05' W 081°06'0 0.0
2016-Sep-08 06:31N 32°05' W 081°06'0 0.0
2016-Sep-08 05:31N 32°05' W 081°06'0 0.0
2016-Sep-08 04:31N 32°05' W 081°06'0 0.0
2016-Sep-08 03:34N 32°05' W 081°06'0 0.0
2016-Sep-08 02:31N 32°05' W 081°06'0 0.0
2016-Sep-08 01:31N 32°05' W 081°06'0 0.0
2016-Sep-08 00:31N 32°05' W 081°06'0 0.0
2016-Sep-07 23:31N 32°05' W 081°06'0 0.0
2016-Sep-07 22:31N 32°05' W 081°06'0 0.0
2016-Sep-07 21:31N 32°05' W 081°06'0 0.0
2016-Sep-07 20:31N 32°05' W 081°06'0 0.0
2016-Sep-07 19:31N 32°05' W 081°06'0 0.0
2016-Sep-07 18:31N 32°05' W 081°06'0 0.0
2016-Sep-07 17:31N 32°05' W 081°06'0 0.0
2016-Sep-07 16:31N 32°05' W 081°06'0 0.0
2016-Sep-07 15:31N 32°05' W 081°06'0 0.0
2016-Sep-07 14:31N 32°05' W 081°06'0 0.0
2016-Sep-07 13:31N 32°05' W 081°06'0 0.0
2016-Sep-07 12:31N 32°05' W 081°06'0 0.0
2016-Sep-07 11:31N 32°05' W 081°06'0 0.0
2016-Sep-07 10:34N 32°05' W 081°06'0 0.0
2016-Sep-07 09:31N 32°05' W 081°06'0 0.0
2016-Sep-07 08:30N 32°05' W 081°06'0 0.0
2016-Sep-07 07:31N 32°05' W 081°06'0 0.0
2016-Sep-07 06:31N 32°05' W 081°06'0 0.0
2016-Sep-07 04:31N 32°05' W 081°06'0 0.0
2016-Sep-07 03:33N 32°05' W 081°06'0 0.0
2016-Sep-07 02:34N 32°05' W 081°06'0 0.0
2016-Sep-07 01:31N 32°05' W 081°06'0 0.0
2016-Sep-07 00:33N 32°05' W 081°06'0 0.0
2016-Sep-06 23:33N 32°05' W 081°06'0 0.0
2016-Sep-06 22:34N 32°05' W 081°06'1 1.4
2016-Sep-06 21:33N 32°06' W 081°07'6 5.8
2016-Sep-06 20:33N 32°06' W 081°00'1110.9
2016-Sep-06 19:33N 32°01' W 080°49'1110.8
2016-Sep-06 18:33N 31°58' W 080°37'6 6.3
2016-Sep-06 17:33N 31°58' W 080°29'17 6.9
2016-Sep-06 15:07N 32°02' W 080°10'4 7.2
2016-Sep-06 14:31N 32°04' W 080°05'356 9.6
2016-Sep-05 01:29N 36°49' W 075°48'1111.5
2016-Sep-05 00:32N 36°56' W 075°59'7216.4
2016-Sep-04 20:08N 38°07' W 076°14'3718.4
2016-Sep-04 18:07N 38°43' W 076°26'1018.5
2016-Sep-04 17:33N 38°54' W 076°24'1414.3
2016-Sep-04 16:33N 39°08' W 076°24'1110.5
2016-Sep-04 15:32N 39°15' W 076°34'1 0.6
2016-Sep-04 14:33N 39°15' W 076°35'0 0.0
2016-Sep-04 13:33N 39°15' W 076°35'0 0.0
2016-Sep-04 12:33N 39°15' W 076°35'0 0.0
2016-Sep-04 11:33N 39°15' W 076°35'0 0.0
2016-Sep-04 10:33N 39°15' W 076°35'0 0.0
2016-Sep-04 09:33N 39°15' W 076°35'0 0.0
2016-Sep-04 08:30N 39°15' W 076°35'0 0.0
2016-Sep-04 07:33N 39°15' W 076°35'0 0.0
2016-Sep-04 06:30N 39°15' W 076°35'2 1.0
2016-Sep-04 04:34N 39°15' W 076°32'0 0.0
2016-Sep-04 03:30N 39°15' W 076°32'0 0.0
2016-Sep-04 02:30N 39°15' W 076°32'0 0.0
2016-Sep-04 01:33N 39°15' W 076°32'0 0.0
2016-Sep-04 00:33N 39°15' W 076°32'0 0.0
2016-Sep-03 23:33N 39°15' W 076°32'0 0.0
2016-Sep-03 22:33N 39°15' W 076°32'  

Dump ship's entire track history